Meteorología y climatología de Navarra
Datos de la estación - Meteo Navarra

Estación de Aguilar de Codés GN

Altitud 736 m.


Datos desde el 14/08/2019 hasta el 15/08/2019 en horario solar
Los datos son PROVISIONALES

Anterior Página 1 de 1 Siguiente Descargar: Formato para Excel 2000 o superior   Formato csv   Formato para OpenOffice Calc
Fecha Temperatura Humedad relativa Radiación global Insolación Precipitación Vel. viento 10 m Vel. viento 10 m Dir. viento 10 m
ºC % W/m² s l/m² m/s km/h º
14/08/2019 0:00 11.0 76 0.0 0 0.0 1.8 6.6 326
14/08/2019 0:10 10.8 77 0.0 0 0.0 1.9 6.8 311
14/08/2019 0:20 12.2 71 0.0 0 0.0 2.0 7.2 309
14/08/2019 0:30 12.4 70 0.0 0 0.0 1.6 5.8 313
14/08/2019 0:40 12.5 70 0.0 0 0.0 2.0 7.3 309
14/08/2019 0:50 12.7 69 0.0 0 0.0 2.1 7.7 308
14/08/2019 1:00 12.4 69 0.0 0 0.0 2.8 9.9 304
14/08/2019 1:10 12.5 69 0.0 0 0.0 3.1 11.3 312
14/08/2019 1:20 12.1 70 0.0 0 0.0 2.0 7.2 306
14/08/2019 1:30 11.9 70 0.0 0 0.0 2.3 8.4 309
14/08/2019 1:40 12.4 67 0.0 0 0.0 2.7 9.7 309
14/08/2019 1:50 12.3 68 0.0 0 0.0 2.8 10.2 302
14/08/2019 2:00 12.2 68 0.0 0 0.0 2.4 8.8 309
14/08/2019 2:10 11.9 69 0.0 0 0.0 2.4 8.8 305
14/08/2019 2:20 11.8 70 0.0 0 0.0 1.3 4.8 252
14/08/2019 2:30 11.7 70 0.0 0 0.0 2.2 7.7 268
14/08/2019 2:40 11.9 69 0.0 0 0.0 2.4 8.6 286
14/08/2019 2:50 12.3 67 0.0 0 0.0 1.6 5.8 276
14/08/2019 3:00 11.4 71 0.0 0 0.0 2.5 8.9 332
14/08/2019 3:10 12.0 70 0.0 0 0.0 0.9 3.2 198
14/08/2019 3:20 12.7 65 0.0 0 0.0 1.9 6.8 243
14/08/2019 3:30 13.0 63 0.0 0 0.0 2.3 8.4 265
14/08/2019 3:40 12.7 65 0.0 0 0.0 2.8 10.2 272
14/08/2019 3:50 12.5 66 0.0 0 0.0 3.9 14.0 276
14/08/2019 4:00 12.4 65 0.0 0 0.0 3.1 11.1 272
14/08/2019 4:10 12.7 64 0.0 0 0.0 2.2 8.0 253
14/08/2019 4:20 12.8 63 0.0 0 0.0 1.7 6.2 286
14/08/2019 4:30 12.9 63 0.0 0 0.0 1.6 5.7 293
14/08/2019 4:40 13.1 61 0.0 0 0.0 2.8 10.2 296
14/08/2019 4:50 13.3 61 0.0 0 0.0 3.4 12.2 258
14/08/2019 5:00 12.7 62 0.0 0 0.0 3.2 11.6 252
14/08/2019 5:10 12.9 62 0.0 0 0.0 3.0 10.7 262
14/08/2019 5:20 12.8 62 0.0 0 0.0 2.8 10.2 262
14/08/2019 5:30 12.6 63 1.5 0 0.0 2.9 10.4 257
14/08/2019 5:40 12.8 64 23.2 152 0.0 3.1 11.0 300
14/08/2019 5:50 13.3 62 51.7 600 0.0 3.3 11.8 282
14/08/2019 6:00 13.3 63 74.8 600 0.0 2.1 7.5 261
14/08/2019 6:10 13.5 60 101.0 600 0.0 1.4 5.1 277
14/08/2019 6:20 14.0 60 129.2 600 0.0 1.2 4.3 234
14/08/2019 6:30 14.5 60 159.1 600 0.0 1.6 5.8 266
14/08/2019 6:40 14.9 59 189.5 600 0.0 1.7 6.0 263
14/08/2019 6:50 15.4 58 221.5 600 0.0 1.9 6.8 252
14/08/2019 7:00 16.0 57 254.1 600 0.0 2.2 7.8 314
14/08/2019 7:10 16.4 57 286.5 600 0.0 2.1 7.7 300
14/08/2019 7:20 16.4 55 318.6 600 0.0 1.9 6.8 282
14/08/2019 7:30 16.9 55 350.7 600 0.0 1.3 4.6 300
14/08/2019 7:40 17.3 53 383.3 600 0.0 2.0 7.1 294
14/08/2019 7:50 17.6 51 416.0 600 0.0 2.1 7.4 312
14/08/2019 8:00 18.0 52 449.1 600 0.0 2.8 10.0 317
14/08/2019 8:10 18.3 51 482.0 600 0.0 3.1 11.1 318
14/08/2019 8:20 18.8 46 513.6 600 0.0 2.8 10.1 316
14/08/2019 8:30 19.2 42 545.0 600 0.0 4.1 14.6 314
14/08/2019 8:40 19.6 39 575.4 600 0.0 4.2 15.0 313
14/08/2019 8:50 20.1 38 603.2 600 0.0 3.6 12.9 319
14/08/2019 9:00 20.7 40 631.1 600 0.0 3.0 10.9 317
14/08/2019 9:10 21.1 39 657.8 600 0.0 2.9 10.5 321
14/08/2019 9:20 21.8 38 683.5 600 0.0 3.1 11.2 322
14/08/2019 9:30 22.2 37 708.3 600 0.0 3.6 13.1 331
14/08/2019 9:40 22.2 35 733.2 600 0.0 4.3 15.3 320
14/08/2019 9:50 22.5 33 759.6 600 0.0 4.4 15.9 321
14/08/2019 10:00 22.9 33 783.1 600 0.0 5.0 18.0 327
14/08/2019 10:10 23.2 34 801.0 600 0.0 6.0 21.5 328
14/08/2019 10:20 23.3 35 818.0 600 0.0 4.6 16.4 325
14/08/2019 10:30 23.6 35 836.0 600 0.0 5.4 19.4 329
14/08/2019 10:40 24.0 34 852.0 600 0.0 4.9 17.6 334
14/08/2019 10:50 24.3 33 870.0 600 0.0 3.9 13.9 306
14/08/2019 11:00 24.9 31 891.0 600 0.0 3.6 13.1 300
14/08/2019 11:10 24.7 31 889.0 600 0.0 3.9 13.9 303
14/08/2019 11:20 25.2 32 793.9 600 0.0 3.3 12.0 291
14/08/2019 11:30 25.5 33 977.0 600 0.0 3.5 12.5 318
14/08/2019 11:40 25.1 34 929.0 600 0.0 4.6 16.7 316
14/08/2019 11:50 25.2 33 924.0 600 0.0 5.3 19.2 334
14/08/2019 12:00 25.8 31 932.0 600 0.0 3.8 13.6 310
14/08/2019 12:10 25.5 29 961.0 600 0.0 5.5 19.8 330
14/08/2019 12:20 26.2 29 962.0 600 0.0 3.3 11.8 321
14/08/2019 12:30 26.6 29 942.0 600 0.0 4.1 14.6 316
14/08/2019 12:40 26.2 29 927.0 600 0.0 5.5 19.7 325
14/08/2019 12:50 26.1 29 923.0 600 0.0 5.6 20.1 345
14/08/2019 13:00 26.3 31 916.0 600 0.0 5.2 18.7 341
14/08/2019 13:10 26.1 33 906.0 600 0.0 5.6 20.2 336
14/08/2019 13:20 26.2 33 894.0 600 0.0 4.3 15.6 340
14/08/2019 13:30 26.4 34 886.0 600 0.0 3.9 14.0 322
14/08/2019 13:40 26.7 34 870.0 600 0.0 3.4 12.2 334
14/08/2019 13:50 26.8 34 858.0 600 0.0 3.0 10.9 316
14/08/2019 14:00 26.5 36 869.0 600 0.0 3.3 11.9 322
14/08/2019 14:10 27.0 35 840.0 600 0.0 3.9 14.0 315
14/08/2019 14:20 26.7 35 840.0 600 0.0 2.6 9.3 321
14/08/2019 14:30 26.9 35 813.0 600 0.0 2.9 10.6 329
14/08/2019 14:40 27.0 34 776.5 600 0.0 4.7 17.0 345
14/08/2019 14:50 26.8 35 748.9 600 0.0 4.6 16.4 350
14/08/2019 15:00 26.5 35 724.7 600 0.0 4.8 17.3 6
14/08/2019 15:10 26.7 35 699.8 600 0.0 5.1 18.2 351
14/08/2019 15:20 26.5 36 676.2 600 0.0 5.3 19.0 357
14/08/2019 15:30 26.5 36 648.7 600 0.0 4.8 17.4 348
14/08/2019 15:40 26.2 37 621.5 600 0.0 5.6 20.1 11
14/08/2019 15:50 26.0 38 594.5 600 0.0 6.0 21.4 356
14/08/2019 16:00 26.0 39 565.0 600 0.0 6.2 22.3 357
14/08/2019 16:10 25.7 39 537.5 600 0.0 6.0 21.5 1
14/08/2019 16:20 25.7 40 508.2 600 0.0 6.4 23.0 346
14/08/2019 16:30 25.6 40 476.3 600 0.0 7.0 25.1 343
14/08/2019 16:40 25.5 40 444.3 600 0.0 7.5 26.8 350
14/08/2019 16:50 25.1 41 411.9 600 0.0 7.8 28.0 346
14/08/2019 17:00 24.9 42 360.5 532 0.0 7.5 27.0 347
14/08/2019 17:10 24.5 42 319.2 564 0.0 8.0 28.8 350
14/08/2019 17:20 23.8 43 172.3 188 0.0 7.7 27.6 348
14/08/2019 17:30 23.1 46 109.4 70 0.0 8.4 30.2 349
14/08/2019 17:40 22.6 47 76.8 0 0.0 9.2 33.1 340
14/08/2019 17:50 22.5 49 207.4 472 0.0 8.7 31.4 342
14/08/2019 18:00 22.4 50 151.0 404 0.0 8.5 30.7 348
14/08/2019 18:10 21.8 52 130.1 480 0.0 8.4 30.3 347
14/08/2019 18:20 21.6 53 122.3 600 0.0 7.4 26.8 342
14/08/2019 18:30 21.4 55 60.5 208 0.0 7.1 25.6 347
14/08/2019 18:40 21.0 56 69.3 600 0.0 6.2 22.2 339
14/08/2019 18:50 20.5 58 47.2 600 0.0 7.4 26.7 333
14/08/2019 19:00 20.1 59 24.8 216 0.0 7.2 25.9 334
14/08/2019 19:10 19.8 60 2.6 0 0.0 6.9 24.8 333
14/08/2019 19:20 19.5 61 0.0 0 0.0 5.8 20.8 346
14/08/2019 19:30 19.3 62 0.0 0 0.0 6.4 23.0 337
14/08/2019 19:40 19.0 63 0.0 0 0.0 6.0 21.6 341
14/08/2019 19:50 18.7 65 0.0 0 0.0 5.7 20.6 336
14/08/2019 20:00 18.3 68 0.0 0 0.0 6.6 23.7 336
14/08/2019 20:10 18.2 70 0.0 0 0.0 6.5 23.4 329
14/08/2019 20:20 17.9 72 0.0 0 0.0 7.8 28.2 330
14/08/2019 20:30 17.6 75 0.0 0 0.0 6.7 24.3 341
14/08/2019 20:40 17.4 77 0.0 0 0.0 6.1 22.0 340
14/08/2019 20:50 17.3 79 0.0 0 0.0 6.0 21.5 343
14/08/2019 21:00 17.2 80 0.0 0 0.0 6.8 24.3 333
14/08/2019 21:10 17.3 80 0.0 0 0.0 6.3 22.5 330
14/08/2019 21:20 17.1 81 0.0 0 0.0 7.2 25.8 320
14/08/2019 21:30 17.2 81 0.0 0 0.0 7.3 26.3 320
14/08/2019 21:40 17.1 82 0.0 0 0.0 6.7 24.2 320
14/08/2019 21:50 17.1 82 0.0 0 0.0 6.7 24.0 316
14/08/2019 22:00 17.1 82 0.0 0 0.0 6.0 21.5 318
14/08/2019 22:10 17.0 82 0.0 0 0.0 5.8 20.8 318
14/08/2019 22:20 16.9 83 0.0 0 0.0 5.4 19.4 320
14/08/2019 22:30 16.8 84 0.0 0 0.0 5.5 19.7 325
14/08/2019 22:40 16.6 84 0.0 0 0.0 5.6 20.3 326
14/08/2019 22:50 16.5 84 0.0 0 0.0 5.3 19.0 324
14/08/2019 23:00 16.0 84 0.0 0 0.0 5.4 19.5 317
14/08/2019 23:10 15.6 85 0.0 0 0.0 5.4 19.4 315
14/08/2019 23:20 15.9 85 0.0 0 0.0 5.1 18.5 315
14/08/2019 23:30 16.0 85 0.0 0 0.0 4.8 17.2 315
14/08/2019 23:40 16.2 85 0.0 0 0.0 4.5 16.1 318
14/08/2019 23:50 16.3 84 0.0 0 0.0 3.8 13.5 328
Anterior Página 1 de 1 Siguiente

NOTA: Tipo de datos según el color:
   - Valores diarios o 10 minutos correctos
   - Valores diarios calculados a partir de un número de datos 10 minutos menor que 144 y mayor que 120, o de un número de datos semihorarios menor que 48 y mayor que 40 (caso de las estaciones de Riegos de Navarra y del MARM)
   - Valores diez minutos estimados


Contacto        Enlaces        Aviso legal